createdAt,value
2018-10-11T00:15:14.545Z,14.70
2018-10-11T00:28:54.406Z,13.60
2018-10-11T00:32:57.168Z,13.60
2018-10-11T00:37:00.069Z,13.50
2018-10-11T00:45:13.613Z,13.40
2018-10-11T00:49:20.384Z,13.30
2018-10-11T00:53:27.195Z,13.30
2018-10-11T01:01:58.431Z,13.20
2018-10-11T01:06:18.619Z,13.10
2018-10-11T01:10:25.295Z,13.10
2018-10-11T01:19:34.974Z,13.20
2018-10-11T01:23:47.093Z,13.10
2018-10-11T01:27:51.253Z,13.00
2018-10-11T01:32:05.387Z,12.90
2018-10-11T01:36:14.937Z,12.90
2018-10-11T01:40:23.752Z,12.90
2018-10-11T01:44:26.666Z,12.90
2018-10-11T01:48:29.471Z,12.90
2018-10-11T01:52:38.942Z,12.90
2018-10-11T01:56:56.869Z,12.80
2018-10-11T02:01:02.941Z,12.80
2018-10-11T02:05:13.962Z,12.70
2018-10-11T02:09:20.953Z,12.90
2018-10-11T02:13:29.493Z,13.00
2018-10-11T02:17:32.318Z,13.00
2018-10-11T02:21:50.592Z,13.00
2018-10-11T02:26:10.585Z,13.00
2018-10-11T02:30:14.195Z,13.00
2018-10-11T02:34:17.065Z,13.00
2018-10-11T02:38:19.776Z,13.10
2018-10-11T02:42:22.492Z,13.10
2018-10-11T02:46:34.421Z,13.00
2018-10-11T02:50:52.935Z,13.00
2018-10-11T02:55:00.995Z,13.00
2018-10-11T02:59:44.730Z,12.90
2018-10-11T03:03:52.290Z,12.80
2018-10-11T03:08:02.909Z,12.70
2018-10-11T03:12:05.662Z,12.70
2018-10-11T03:16:08.367Z,12.60
2018-10-11T03:20:11.389Z,12.80
2018-10-11T03:24:20.869Z,12.80
2018-10-11T03:32:38.865Z,12.70
2018-10-11T03:36:51.008Z,12.80
2018-10-11T03:41:03.013Z,12.80
2018-10-11T03:45:05.876Z,12.80
2018-10-11T03:49:16.716Z,12.80
2018-10-11T03:53:19.673Z,12.70
2018-10-11T03:57:29.184Z,12.70
2018-10-11T04:01:42.402Z,12.70
2018-10-11T04:05:45.132Z,12.70
2018-10-11T04:09:52.630Z,12.70
2018-10-11T04:14:00.003Z,12.60
2018-10-11T04:18:06.253Z,12.50
2018-10-11T04:22:09.401Z,12.40
2018-10-11T04:26:12.166Z,12.40
2018-10-11T04:30:26.367Z,12.30
2018-10-11T04:34:29.120Z,12.30
2018-10-11T04:38:31.901Z,12.30
2018-10-11T04:42:34.724Z,12.40
2018-10-11T04:46:37.400Z,12.40
2018-10-11T04:51:03.474Z,12.40
2018-10-11T04:55:06.634Z,12.60
2018-10-11T04:59:09.974Z,12.40
2018-10-11T05:03:14.339Z,12.50
2018-10-11T05:07:17.561Z,12.50
2018-10-11T05:11:20.911Z,12.40
2018-10-11T05:15:25.364Z,12.40
2018-10-11T05:19:28.678Z,12.40
2018-10-11T05:23:31.907Z,12.30
2018-10-11T05:27:35.184Z,12.20
2018-10-11T05:31:38.671Z,12.10
2018-10-11T05:35:43.325Z,12.00
2018-10-11T05:39:46.705Z,11.90
2018-10-11T05:43:50.088Z,11.80
2018-10-11T05:47:53.527Z,11.80
2018-10-11T05:51:56.936Z,11.80
2018-10-11T05:56:00.275Z,11.80
2018-10-11T06:00:03.636Z,11.70
2018-10-11T06:04:08.937Z,11.70
2018-10-11T06:08:12.267Z,11.70
2018-10-11T06:12:16.651Z,11.70
2018-10-11T06:16:19.981Z,11.80
2018-10-11T06:20:23.379Z,11.90
2018-10-11T21:09:30.140Z,17.60
2018-10-11T21:13:32.934Z,17.40
2018-10-11T21:17:35.679Z,17.40
2018-10-11T21:21:38.469Z,17.30
2018-10-11T21:25:41.161Z,17.30
2018-10-11T21:29:43.904Z,17.10
2018-10-11T21:33:46.629Z,17.00
2018-10-11T21:37:49.275Z,16.90
2018-10-11T21:41:51.974Z,17.00
2018-10-11T21:45:54.716Z,17.00
2018-10-11T21:49:57.415Z,17.00
2018-10-11T21:54:00.133Z,17.00
2018-10-11T21:58:02.870Z,16.80
2018-10-11T22:02:05.592Z,16.80
2018-10-11T22:06:08.548Z,16.80
2018-10-11T22:10:11.293Z,16.80
2018-10-11T22:14:13.971Z,16.70
2018-10-11T22:18:16.846Z,16.60
2018-10-11T22:22:19.623Z,16.60
2018-10-11T22:26:22.354Z,16.70
2018-10-11T22:30:25.112Z,16.70
2018-10-11T22:34:27.799Z,16.60
2018-10-11T22:38:30.476Z,16.50
2018-10-11T22:42:33.224Z,16.40
2018-10-11T22:46:36.343Z,16.40
2018-10-11T22:50:39.071Z,16.40
2018-10-11T22:54:41.827Z,16.40
2018-10-11T22:58:44.515Z,16.40
2018-10-11T23:02:47.239Z,16.30
2018-10-11T23:06:49.986Z,16.30
2018-10-11T23:10:52.733Z,16.10
2018-10-11T23:14:55.430Z,16.00
2018-10-11T23:18:58.120Z,15.90
2018-10-11T23:23:00.955Z,15.80
2018-10-11T23:27:03.670Z,15.80
2018-10-11T23:31:06.557Z,15.70
2018-10-11T23:35:10.064Z,15.70
2018-10-11T23:39:12.875Z,15.70
2018-10-11T23:43:15.631Z,15.80
2018-10-11T23:47:18.326Z,15.80
2018-10-11T23:51:21.019Z,15.80
2018-10-11T23:55:23.743Z,15.70
2018-10-11T23:59:26.505Z,15.70
